Time;durP1;ratioP1;P1;durP2;ratioP2;P2;SDS_P1;SDS_P2;PMS_P1;PMS_P2;Temp;Humidity;BMP_temperature;BMP_pressure;BME280_temperature;BME280_humidity;BME280_pressure;Samples;Min_cycle;Max_cycle;Signal;HPM_P1;HPM_P2
2021/07/22 06:01:08;;;;;;;4.62;1.87;;;;;;;21.08;53.25;100290.52;1705281;82;21079;-59
2021/07/22 06:03:35;;;;;;;6.30;2.10;;;;;;;21.12;52.77;100291.80;1734867;80;21006;-60
2021/07/22 06:06:05;;;;;;;4.75;2.20;;;;;;;21.16;52.47;100295.72;1701849;81;21186;-58
2021/07/22 06:08:31;;;;;;;5.17;2.00;;;;;;;21.18;52.34;100296.35;1665926;83;21137;-57
2021/07/22 06:10:58;;;;;;;7.47;1.82;;;;;;;21.22;51.96;100294.14;1667438;84;21723;-60
2021/07/22 06:13:24;;;;;;;4.42;1.87;;;;;;;21.22;51.77;100289.61;1694924;82;21156;-59
2021/07/22 06:15:51;;;;;;;5.28;2.35;;;;;;;21.25;52.52;100297.25;1701935;81;21080;-62
2021/07/22 06:18:18;;;;;;;5.37;1.80;;;;;;;21.31;52.59;100296.45;1741418;81;22367;-62
2021/07/22 06:20:45;;;;;;;5.20;1.87;;;;;;;21.41;52.90;100292.61;1712660;81;21086;-60
2021/07/22 06:23:11;;;;;;;6.15;1.67;;;;;;;21.49;52.89;100293.83;1718338;81;21101;-64
2021/07/22 06:25:38;;;;;;;6.83;2.22;;;;;;;21.57;51.61;100293.67;1697273;82;21023;-59
2021/07/22 06:28:06;;;;;;;5.08;1.80;;;;;;;21.61;52.00;100294.92;1686142;83;21115;-63
2021/07/22 06:30:33;;;;;;;9.18;1.85;;;;;;;21.68;52.00;100293.09;1670182;83;21770;-59
2021/07/22 06:33:00;;;;;;;4.85;1.50;;;;;;;21.73;52.02;100294.37;1683980;83;21097;-61
2021/07/22 06:35:27;;;;;;;3.30;1.80;;;;;;;21.77;50.71;100293.78;1694193;82;21199;-68
2021/07/22 06:37:53;;;;;;;7.10;1.67;;;;;;;21.79;50.21;100298.94;1684187;83;21081;-71
2021/07/22 06:40:22;;;;;;;7.37;2.17;;;;;;;21.78;50.79;100298.09;1683371;83;21137;-77
2021/07/22 06:42:49;;;;;;;9.30;2.20;;;;;;;21.82;51.71;100294.50;1698887;83;21101;-71
2021/07/22 06:45:15;;;;;;;7.58;2.40;;;;;;;21.89;52.34;100291.36;1688924;82;21005;-71
2021/07/22 06:47:41;;;;;;;6.75;2.47;;;;;;;21.98;52.67;100292.83;1694188;83;21654;-72
2021/07/22 06:50:10;;;;;;;5.97;2.05;;;;;;;22.08;51.13;100290.59;1690206;82;21085;-77
2021/07/22 06:52:41;;;;;;;5.42;1.80;;;;;;;22.11;49.71;100293.89;1670913;84;21054;-69
2021/07/22 06:55:06;;;;;;;5.12;2.02;;;;;;;22.10;49.79;100290.40;1692448;83;21133;-70
2021/07/22 06:57:33;;;;;;;3.95;1.70;;;;;;;22.10;49.55;100290.92;1686732;82;21054;-73
2021/07/22 06:59:59;;;;;;;4.92;1.60;;;;;;;22.10;49.73;100300.30;1680678;84;21077;-70
2021/07/22 07:02:27;;;;;;;6.35;2.05;;;;;;;22.13;49.90;100294.55;1684341;83;21069;-72
2021/07/22 07:04:53;;;;;;;5.90;2.42;;;;;;;22.17;50.18;100299.80;1677745;83;21587;-67
2021/07/22 07:07:20;;;;;;;6.05;2.05;;;;;;;22.21;50.08;100298.39;1665350;83;21135;-76
2021/07/22 07:09:47;;;;;;;4.72;1.95;;;;;;;22.24;50.54;100293.45;1700175;82;21070;-65
2021/07/22 07:12:13;;;;;;;7.03;2.20;;;;;;;22.34;49.10;100288.23;1684043;83;21053;-68
2021/07/22 07:14:47;;;;;;;4.82;1.84;;;;;;;22.41;49.70;100299.30;1652792;80;10000456;-74
2021/07/22 07:17:26;;;;;;;5.40;1.85;;;;;;;22.45;49.31;100300.53;1586149;81;10000324;-80
2021/07/22 07:19:58;;;;;;;5.75;2.15;;;;;;;22.54;49.49;100296.31;1682857;83;21143;-70
2021/07/22 07:22:24;;;;;;;6.20;1.92;;;;;;;22.57;49.40;100298.59;1680962;83;21034;-76
2021/07/22 07:24:51;;;;;;;6.97;2.17;;;;;;;22.61;49.87;100295.80;1680592;83;21112;-71
2021/07/22 07:30:36;;;;;;;4.78;2.02;;;;;;;22.67;47.57;100304.39;1687557;83;21582;-66
2021/07/22 07:33:04;;;;;;;4.87;1.85;;;;;;;22.67;47.55;100303.56;1674664;84;21016;-72
2021/07/22 07:35:31;;;;;;;6.03;1.98;;;;;;;22.66;47.40;100297.88;1678078;83;21156;-72
2021/07/22 07:37:57;;;;;;;5.03;1.98;;;;;;;22.73;48.11;100305.41;1650931;85;21061;-75
2021/07/22 07:40:24;;;;;;;7.17;1.90;;;;;;;22.78;47.57;100301.63;1671116;83;21132;-80
2021/07/22 07:42:50;;;;;;;5.08;1.80;;;;;;;22.81;48.20;100298.02;1660631;84;21763;-75
2021/07/22 07:45:17;;;;;;;8.43;2.50;;;;;;;22.88;48.26;100306.07;1671956;83;21116;-73
2021/07/22 07:47:45;;;;;;;4.83;1.92;;;;;;;22.95;48.54;100301.52;1673175;85;21107;-75
2021/07/22 07:50:12;;;;;;;6.30;2.47;;;;;;;23.04;48.56;100304.00;1679963;83;21071;-71
2021/07/22 07:52:39;;;;;;;4.55;1.87;;;;;;;23.12;47.44;100307.85;1662314;83;21623;-84
2021/07/22 07:55:07;;;;;;;7.25;2.25;;;;;;;23.17;47.95;100304.84;1701485;83;21140;-75
2021/07/22 07:57:33;;;;;;;4.95;2.25;;;;;;;23.19;47.88;100306.80;1720757;81;21083;-75
2021/07/22 07:59:59;;;;;;;5.70;1.65;;;;;;;23.22;47.89;100312.28;1679480;83;21511;-67
2021/07/22 08:02:26;;;;;;;5.83;2.10;;;;;;;23.23;46.76;100308.55;1682773;85;21058;-70
2021/07/22 08:04:55;;;;;;;6.12;1.50;;;;;;;23.22;47.20;100311.44;1675442;83;21100;-73
2021/07/22 08:07:37;;;;;;;4.79;2.02;;;;;;;23.21;47.34;100309.80;1619821;82;10000382;-73
2021/07/22 08:13:20;;;;;;;5.90;2.08;;;;;;;23.24;48.28;100304.02;1791422;79;22749;-71
2021/07/22 08:15:47;;;;;;;5.33;2.42;;;;;;;23.26;47.07;100304.11;1766375;78;21002;-71
2021/07/22 08:18:15;;;;;;;4.67;1.87;;;;;;;23.31;47.47;100304.83;1757682;80;21505;-73
2021/07/22 08:20:42;;;;;;;5.62;1.77;;;;;;;23.33;47.99;100301.41;1766993;78;21065;-69
2021/07/22 08:23:09;;;;;;;5.42;1.90;;;;;;;23.38;46.49;100302.95;1786935;78;21069;-71
2021/07/22 08:25:36;;;;;;;5.22;2.30;;;;;;;23.41;47.17;100306.56;1764272;79;21029;-74
2021/07/22 08:28:04;;;;;;;3.62;1.50;;;;;;;23.42;46.40;100302.86;1766785;79;21097;-75
2021/07/22 08:30:32;;;;;;;7.42;1.65;;;;;;;23.40;46.30;100306.78;1773382;78;21144;-80
2021/07/22 08:33:01;;;;;;;6.50;2.30;;;;;;;23.44;46.08;100306.69;1763027;79;21038;-70
2021/07/22 08:35:27;;;;;;;5.65;2.15;;;;;;;23.47;44.75;100285.60;1743667;80;21022;-66
2021/07/22 08:37:54;;;;;;;4.47;1.72;;;;;;;23.52;46.16;100302.44;1772399;80;21121;-76
2021/07/22 08:40:20;;;;;;;8.40;2.45;;;;;;;23.56;46.58;100307.16;1778576;78;21058;-73
2021/07/22 08:42:47;;;;;;;5.42;2.17;;;;;;;23.61;45.35;100299.00;1763411;80;21093;-72
2021/07/22 08:45:14;;;;;;;6.45;2.17;;;;;;;23.65;45.58;100298.88;1774641;79;21063;-77
2021/07/22 08:47:41;;;;;;;8.45;2.40;;;;;;;23.69;45.84;100290.72;1742062;80;21027;-80
2021/07/22 08:50:09;;;;;;;7.12;2.37;;;;;;;23.81;47.32;100301.63;1774166;79;21000;-71
2021/07/22 08:52:35;;;;;;;5.78;2.52;;;;;;;23.91;48.01;100300.69;1741006;80;21058;-68
2021/07/22 08:55:03;;;;;;;4.62;1.70;;;;;;;23.99;47.71;100300.95;1746009;79;21125;-71
2021/07/22 08:57:32;;;;;;;4.12;1.70;;;;;;;24.01;47.80;100301.58;1755868;80;21055;-74
2021/07/22 08:59:58;;;;;;;9.50;2.37;;;;;;;23.99;45.87;100302.29;1769034;79;21077;-74
2021/07/22 09:02:30;;;;;;;6.20;2.40;;;;;;;23.95;47.01;100305.11;1778530;78;21137;-70
2021/07/22 09:05:00;;;;;;;5.70;1.72;;;;;;;23.93;46.83;100309.35;1767610;80;21058;-76
2021/07/22 09:07:28;;;;;;;5.55;1.70;;;;;;;23.93;45.72;100305.32;1773760;78;21415;-70
2021/07/22 09:10:10;;;;;;;4.83;2.00;;;;;;;23.95;46.10;100309.14;1776316;78;21477;-66
2021/07/22 09:12:40;;;;;;;5.00;1.82;;;;;;;24.04;43.44;100308.70;1762890;79;21051;-70
2021/07/22 09:15:09;;;;;;;6.50;1.52;;;;;;;24.11;41.26;100307.33;1755361;79;21604;-67
2021/07/22 09:17:35;;;;;;;8.20;2.02;;;;;;;24.11;39.97;100308.67;1734696;80;21496;-72
2021/07/22 09:20:04;;;;;;;5.58;1.70;;;;;;;24.11;40.59;100313.52;1756749;79;21518;-70
2021/07/22 09:22:36;;;;;;;7.80;1.92;;;;;;;24.13;39.15;100306.58;1748557;80;21047;-72
2021/07/22 09:25:02;;;;;;;3.95;1.50;;;;;;;24.12;41.84;100310.30;1754146;80;21035;-71
2021/07/22 09:27:41;;;;;;;3.40;1.30;;;;;;;24.15;40.77;100304.50;1759675;80;21095;-69
2021/07/22 09:30:18;;;;;;;6.80;2.27;;;;;;;24.23;42.41;100302.09;1752787;79;21079;-67
2021/07/22 09:32:49;;;;;;;5.72;1.70;;;;;;;24.31;42.77;100303.19;1756916;79;21151;-71
2021/07/22 09:35:21;;;;;;;4.97;2.00;;;;;;;24.34;41.36;100303.27;1753442;80;21007;-69
2021/07/22 09:37:50;;;;;;;5.40;1.95;;;;;;;24.28;41.85;100311.16;1759066;79;21099;-70
2021/07/22 09:40:20;;;;;;;5.37;2.12;;;;;;;24.27;41.68;100306.80;1751578;80;21604;-70
2021/07/22 09:42:48;;;;;;;6.37;2.47;;;;;;;24.28;42.15;100309.81;1745642;80;21403;-69
2021/07/22 09:45:18;;;;;;;5.40;1.80;;;;;;;24.37;42.94;100309.56;1756700;80;21134;-72
2021/07/22 09:47:46;;;;;;;5.28;2.20;;;;;;;24.41;42.49;100310.77;1699947;82;21074;-71
2021/07/22 09:50:16;;;;;;;10.13;1.82;;;;;;;24.40;42.23;100304.57;1758889;79;21057;-71
2021/07/22 09:52:43;;;;;;;4.08;1.70;;;;;;;24.41;43.53;100311.61;1745093;80;21118;-70
2021/07/22 09:55:30;;;;;;;4.10;1.80;;;;;;;24.38;44.32;100314.73;1736048;80;21046;-73
2021/07/22 09:57:58;;;;;;;5.53;1.90;;;;;;;24.34;44.47;100321.55;1760651;79;21129;-66
2021/07/22 10:00:27;;;;;;;4.30;1.80;;;;;;;24.24;44.07;100305.91;1754826;80;21070;-75
2021/07/22 10:02:55;;;;;;;4.40;1.42;;;;;;;24.25;45.00;100318.30;1758906;79;21363;-66
2021/07/22 10:05:25;;;;;;;3.47;1.47;;;;;;;24.33;43.90;100307.02;1750225;79;21055;-71
2021/07/22 10:07:52;;;;;;;3.83;1.50;;;;;;;24.42;42.51;100313.23;1760148;80;21066;-69
2021/07/22 10:10:24;;;;;;;3.65;1.55;;;;;;;24.48;42.12;100314.27;1757600;79;21059;-75
2021/07/22 10:12:57;;;;;;;4.85;1.50;;;;;;;24.51;42.04;100317.02;1720770;82;21547;-72
2021/07/22 10:15:29;;;;;;;4.40;1.42;;;;;;;24.50;42.27;100321.59;1740495;81;21011;-66
2021/07/22 10:17:56;;;;;;;4.33;1.75;;;;;;;24.57;43.48;100319.70;1741981;82;21157;-72
2021/07/22 10:20:31;;;;;;;5.08;2.17;;;;;;;24.64;42.75;100315.09;1744286;81;21077;-68
2021/07/22 10:22:58;;;;;;;6.35;2.22;;;;;;;24.72;43.50;100315.89;1714376;82;21194;-68
2021/07/22 10:25:25;;;;;;;3.92;1.47;;;;;;;24.70;41.72;100316.11;1733794;82;21537;-68
2021/07/22 10:27:57;;;;;;;3.62;1.47;;;;;;;24.61;40.66;100318.25;1745527;82;21414;-69
2021/07/22 10:30:24;;;;;;;3.80;1.55;;;;;;;24.52;40.87;100322.19;1748635;81;21058;-74
2021/07/22 10:32:56;;;;;;;6.80;1.67;;;;;;;24.46;40.81;100320.35;1726565;82;21098;-68
2021/07/22 10:35:32;;;;;;;5.53;1.67;;;;;;;24.44;41.92;100316.56;1742583;81;21145;-74
2021/07/22 10:38:20;;;;;;;3.95;1.67;;;;;;;24.49;41.46;100314.55;1746385;81;21058;-69
2021/07/22 10:40:59;;;;;;;5.50;1.55;;;;;;;24.56;41.29;100312.70;1722452;82;21051;-73
2021/07/22 10:43:41;;;;;;;3.45;1.40;;;;;;;24.61;41.53;100317.40;1742768;81;21071;-69
2021/07/22 10:46:20;;;;;;;4.08;1.50;;;;;;;24.65;41.24;100308.69;1742975;82;21008;-71
2021/07/22 10:48:47;;;;;;;4.35;1.60;;;;;;;24.70;41.14;100319.33;1741907;82;21118;-72
2021/07/22 10:51:20;;;;;;;5.17;1.95;;;;;;;24.69;41.14;100324.40;1717005;81;21047;-72
2021/07/22 10:53:50;;;;;;;3.73;1.47;;;;;;;24.71;40.52;100315.05;1741067;82;21058;-70
2021/07/22 10:56:37;;;;;;;3.85;1.77;;;;;;;24.72;39.45;100319.93;1738510;82;21012;-71
2021/07/22 10:59:04;;;;;;;4.00;1.75;;;;;;;24.73;39.42;100299.53;1744717;80;21735;-70
2021/07/22 11:01:49;;;;;;;5.42;1.70;;;;;;;24.80;39.86;100305.69;1741091;81;21086;-66
2021/07/22 11:04:37;;;;;;;3.70;1.22;;;;;;;24.88;39.32;100304.60;1713912;82;21149;-67
2021/07/22 11:07:04;;;;;;;2.98;1.25;;;;;;;24.94;38.63;100305.58;1743394;81;21078;-70
2021/07/22 11:09:51;;;;;;;3.25;1.17;;;;;;;24.94;38.48;100310.44;1749594;81;21010;-72
2021/07/22 11:12:44;;;;;;;3.85;1.30;;;;;;;24.89;39.07;100317.00;1730007;80;21616;-68
2021/07/22 11:15:17;;;;;;;4.17;1.62;;;;;;;24.82;39.07;100304.94;1740150;79;21068;-70
2021/07/22 11:17:46;;;;;;;3.37;1.37;;;;;;;24.80;39.04;100305.69;1764242;80;20896;-75
2021/07/22 11:20:32;;;;;;;4.55;1.75;;;;;;;24.86;39.74;100310.70;1754985;80;21035;-70
2021/07/22 11:23:10;;;;;;;3.70;1.30;;;;;;;24.97;38.66;100309.19;1768128;79;21086;-64
2021/07/22 11:25:45;;;;;;;4.80;2.00;;;;;;;25.07;37.76;100306.81;1742656;80;21042;-65
2021/07/22 11:28:13;;;;;;;5.58;1.55;;;;;;;25.12;35.28;100319.09;1739940;80;21995;-65
2021/07/22 11:30:40;;;;;;;3.33;1.15;;;;;;;25.16;35.91;100309.52;1746153;80;21106;-70
2021/07/22 11:33:17;;;;;;;5.95;1.80;;;;;;;25.19;35.63;100311.77;1740355;82;21066;-66
2021/07/22 11:36:01;;;;;;;5.03;1.62;;;;;;;25.21;34.11;100304.29;1779802;80;21587;-68
2021/07/22 11:38:29;;;;;;;3.70;1.22;;;;;;;25.30;35.85;100312.97;1747653;80;21349;-68
2021/07/22 11:40:56;;;;;;;4.33;1.42;;;;;;;25.36;34.37;100300.47;1746188;79;21125;-70
2021/07/22 11:43:39;;;;;;;4.12;1.50;;;;;;;25.40;34.20;100317.31;1759091;79;21062;-73
2021/07/22 11:46:12;;;;;;;4.00;1.30;;;;;;;25.43;31.60;100301.22;1746469;80;21078;-64
2021/07/22 11:48:40;;;;;;;3.60;1.30;;;;;;;25.43;32.04;100303.09;1762589;80;21150;-66
2021/07/22 11:51:14;;;;;;;5.75;1.40;;;;;;;25.43;33.24;100297.70;1761673;79;21082;-66
2021/07/22 11:53:42;;;;;;;3.62;1.20;;;;;;;25.43;32.52;100299.88;1762804;80;21085;-68
2021/07/22 11:56:11;;;;;;;3.70;1.20;;;;;;;25.49;33.98;100300.87;1721867;82;21078;-63
2021/07/22 11:58:38;;;;;;;3.55;1.20;;;;;;;25.54;33.11;100299.67;1761996;80;21033;-68
2021/07/22 12:01:06;;;;;;;3.20;1.32;;;;;;;25.59;34.53;100293.09;1769805;80;21073;-62
2021/07/22 12:03:33;;;;;;;4.12;1.57;;;;;;;25.66;34.94;100298.41;1760346;79;21079;-58
2021/07/22 12:06:00;;;;;;;3.25;1.20;;;;;;;25.72;35.06;100292.94;1768245;79;21087;-61
2021/07/22 12:08:26;;;;;;;4.30;1.20;;;;;;;25.76;34.43;100298.16;1743322;80;21556;-60
2021/07/22 12:11:03;;;;;;;2.85;1.10;;;;;;;25.83;34.15;100295.39;1763131;80;21098;-58
2021/07/22 12:13:51;;;;;;;4.05;1.27;;;;;;;25.92;33.86;100299.44;1757450;80;20990;-63
2021/07/22 12:16:24;;;;;;;3.83;1.22;;;;;;;26.00;33.02;100292.11;1760344;79;21172;-65
2021/07/22 12:18:52;;;;;;;4.10;1.10;;;;;;;26.05;33.63;100293.07;1763449;80;21105;-65
2021/07/22 12:21:26;;;;;;;3.33;1.20;;;;;;;26.10;33.17;100299.95;1767250;80;21054;-62
2021/07/22 12:23:53;;;;;;;3.00;1.17;;;;;;;26.16;32.25;100293.34;1770187;79;21063;-62
2021/07/22 12:26:20;;;;;;;4.90;1.67;;;;;;;26.23;33.00;100298.14;1761184;80;21105;-57
2021/07/22 12:29:03;;;;;;;2.92;1.05;;;;;;;26.30;33.10;100294.28;1764807;80;21572;-58
2021/07/22 12:31:38;;;;;;;6.45;1.47;;;;;;;26.34;32.79;100296.00;1764581;79;21541;-57
2021/07/22 12:34:07;;;;;;;3.85;1.40;;;;;;;26.31;32.81;100295.13;1765412;80;21146;-59
2021/07/22 12:36:34;;;;;;;6.53;1.70;;;;;;;26.24;33.60;100295.22;1735595;80;21041;-63
2021/07/22 12:39:14;;;;;;;6.90;1.40;;;;;;;26.22;32.83;100293.79;1733391;80;21015;-62
2021/07/22 12:41:42;;;;;;;10.82;1.22;;;;;;;26.22;33.63;100292.44;1739758;80;21090;-64
2021/07/22 12:44:08;;;;;;;3.65;1.37;;;;;;;26.16;32.34;100295.53;1758203;80;22287;-63
2021/07/22 12:46:35;;;;;;;3.42;1.25;;;;;;;26.11;32.35;100296.22;1762531;80;21545;-66
2021/07/22 12:49:02;;;;;;;4.08;1.20;;;;;;;26.09;33.48;100290.73;1755440;79;21019;-65
2021/07/22 12:51:28;;;;;;;5.83;1.40;;;;;;;26.08;32.40;100288.58;1762439;79;21102;-55
2021/07/22 12:53:56;;;;;;;3.42;1.10;;;;;;;26.14;32.08;100299.80;1761776;80;21117;-59
2021/07/22 12:56:23;;;;;;;3.72;1.30;;;;;;;26.19;31.19;100299.64;1733343;80;21211;-56
2021/07/22 12:58:51;;;;;;;4.67;1.40;;;;;;;26.21;32.19;100305.11;1690423;80;21180;-59
2021/07/22 13:01:22;;;;;;;5.55;1.57;;;;;;;26.24;32.75;100295.73;1762300;80;20996;-59
2021/07/22 13:03:50;;;;;;;4.17;1.07;;;;;;;26.30;31.70;100292.94;1766285;79;21039;-58
2021/07/22 13:06:18;;;;;;;6.55;1.30;;;;;;;26.30;32.33;100295.63;1766676;80;21129;-61
2021/07/22 13:08:45;;;;;;;4.60;1.02;;;;;;;26.35;32.05;100297.66;1773804;79;21114;-59
2021/07/22 13:11:13;;;;;;;3.77;1.30;;;;;;;26.39;31.77;100296.66;1756841;80;21536;-57
2021/07/22 13:13:46;;;;;;;4.65;1.22;;;;;;;26.45;31.85;100291.70;1756687;79;21004;-58
2021/07/22 13:16:12;;;;;;;6.42;1.17;;;;;;;26.53;30.98;100275.70;1730245;80;21063;-58
2021/07/22 13:18:39;;;;;;;2.75;1.22;;;;;;;26.63;31.76;100281.38;1757242;80;21050;-59
2021/07/22 13:21:11;;;;;;;3.08;1.20;;;;;;;26.70;31.40;100283.47;1736930;80;21934;-59
2021/07/22 13:23:38;;;;;;;3.58;1.17;;;;;;;26.74;31.23;100283.29;1708082;82;21070;-59
2021/07/22 13:26:07;;;;;;;3.22;1.12;;;;;;;26.78;30.88;100280.44;1752847;79;21019;-55
2021/07/22 13:28:35;;;;;;;3.27;1.20;;;;;;;26.77;31.59;100292.27;1754875;80;21090;-58
2021/07/22 13:31:02;;;;;;;3.40;1.10;;;;;;;26.78;29.74;100283.64;1735932;80;21035;-58
2021/07/22 13:33:28;;;;;;;6.85;1.40;;;;;;;26.83;29.94;100285.11;1752749;80;21466;-57
2021/07/22 13:35:56;;;;;;;4.67;1.10;;;;;;;26.85;29.23;100279.79;1757909;80;21149;-59
2021/07/22 13:38:32;;;;;;;3.67;1.30;;;;;;;26.87;30.81;100291.17;1757686;80;21647;-58
2021/07/22 13:41:01;;;;;;;3.65;1.30;;;;;;;26.88;30.11;100282.03;1756846;80;21063;-58
2021/07/22 13:43:28;;;;;;;3.87;0.98;;;;;;;26.92;31.30;100276.17;1754033;79;21028;-58
2021/07/22 13:45:54;;;;;;;4.03;1.30;;;;;;;27.00;30.94;100280.69;1762702;80;21836;-56
2021/07/22 13:48:21;;;;;;;3.55;1.00;;;;;;;27.02;30.10;100285.86;1752830;80;21058;-56
2021/07/22 13:50:48;;;;;;;4.08;0.90;;;;;;;26.99;30.48;100279.03;1745088;80;21154;-54
2021/07/22 13:53:14;;;;;;;2.60;0.82;;;;;;;27.03;29.94;100278.03;1756348;79;21498;-63
2021/07/22 13:55:41;;;;;;;3.05;1.10;;;;;;;27.14;29.46;100274.52;1755788;80;21086;-62
2021/07/22 13:58:07;;;;;;;3.87;1.25;;;;;;;27.24;28.73;100273.39;1753138;79;21597;-65
2021/07/22 14:00:34;;;;;;;3.60;1.10;;;;;;;27.33;30.18;100271.72;1751359;80;21052;-65
2021/07/22 14:03:04;;;;;;;4.58;1.15;;;;;;;27.46;29.15;100262.55;1754440;80;21102;-59
2021/07/22 14:05:32;;;;;;;3.45;1.40;;;;;;;27.65;28.52;100251.05;1742997;80;21064;-59
2021/07/22 14:08:01;;;;;;;3.55;1.10;;;;;;;28.35;28.61;100272.42;1750867;80;21557;-59
2021/07/22 14:10:28;;;;;;;6.25;1.22;;;;;;;29.40;27.24;100267.05;1757465;80;21116;-59
2021/07/22 14:12:59;;;;;;;5.12;1.15;;;;;;;30.53;24.75;100262.89;1744528;80;21539;-59
2021/07/22 14:15:25;;;;;;;2.75;1.17;;;;;;;31.41;23.42;100256.19;1755681;79;21644;-59
2021/07/22 14:17:51;;;;;;;6.28;1.15;;;;;;;32.08;22.54;100253.20;1758535;80;21510;-59
2021/07/22 14:20:18;;;;;;;4.60;1.22;;;;;;;32.72;22.31;100249.16;1743667;80;21012;-59
2021/07/22 14:22:44;;;;;;;5.20;1.30;;;;;;;33.33;21.51;100249.59;1752307;79;21264;-58
2021/07/22 14:25:12;;;;;;;3.67;1.10;;;;;;;33.63;20.11;100241.58;1756787;80;21553;-58
2021/07/22 14:27:38;;;;;;;5.25;1.60;;;;;;;33.78;21.52;100252.44;1754119;80;21070;-58
2021/07/22 14:30:10;;;;;;;2.47;1.00;;;;;;;34.06;20.72;100248.70;1741179;80;22278;-58
2021/07/22 14:32:35;;;;;;;5.80;1.10;;;;;;;34.38;21.00;100248.78;1727879;79;21470;-59
2021/07/22 14:35:01;;;;;;;3.05;1.37;;;;;;;34.78;20.43;100248.19;1760915;80;21050;-73
2021/07/22 14:37:28;;;;;;;5.20;1.50;;;;;;;34.95;20.16;100247.21;1754981;79;22151;-61
2021/07/22 14:39:55;;;;;;;3.77;0.75;;;;;;;35.04;19.53;100246.58;1741038;80;21051;-58
2021/07/22 14:42:22;;;;;;;2.40;0.80;;;;;;;35.24;19.65;100245.00;1747900;80;21063;-61
2021/07/22 14:44:48;;;;;;;3.25;1.07;;;;;;;35.40;19.31;100238.78;1739257;80;21130;-60
2021/07/22 14:47:14;;;;;;;4.60;1.02;;;;;;;35.43;19.42;100240.13;1752951;79;21214;-62
2021/07/22 14:49:43;;;;;;;4.87;1.15;;;;;;;35.35;18.70;100241.58;1746241;80;21476;-58
2021/07/22 14:52:09;;;;;;;2.40;0.80;;;;;;;35.22;19.22;100236.28;1747263;79;21078;-61
2021/07/22 14:54:36;;;;;;;7.22;1.75;;;;;;;35.09;19.46;100243.23;1737165;80;22124;-63
2021/07/22 14:57:03;;;;;;;3.45;1.17;;;;;;;35.06;19.10;100248.47;1756874;79;21106;-60
2021/07/22 14:59:29;;;;;;;3.67;1.37;;;;;;;34.94;18.72;100244.77;1756566;80;21058;-67
2021/07/22 15:01:57;;;;;;;4.30;1.00;;;;;;;34.75;18.93;100237.83;1751207;80;21082;-65
2021/07/22 15:04:23;;;;;;;2.80;1.22;;;;;;;34.71;19.46;100239.48;1747765;80;21095;-68
2021/07/22 15:06:51;;;;;;;2.12;0.80;;;;;;;34.94;19.84;100239.30;1741101;80;21145;-68
2021/07/22 15:09:18;;;;;;;6.03;1.40;;;;;;;35.41;19.51;100228.67;1763422;79;21109;-68
2021/07/22 15:11:45;;;;;;;2.72;0.95;;;;;;;35.77;17.70;100220.00;1749195;79;21126;-71
2021/07/22 15:14:12;;;;;;;2.45;0.80;;;;;;;35.64;18.32;100228.34;1743309;80;21122;-72
2021/07/22 15:16:39;;;;;;;3.90;1.00;;;;;;;35.33;19.49;100228.19;1722583;81;21113;-71
2021/07/22 15:19:06;;;;;;;3.58;0.98;;;;;;;35.14;19.06;100227.32;1750768;81;21079;-67
2021/07/22 15:21:35;;;;;;;3.05;0.90;;;;;;;35.02;19.47;100229.63;1746989;81;21088;-69
2021/07/22 15:24:01;;;;;;;3.33;1.20;;;;;;;34.92;19.81;100230.02;1744886;81;21070;-71
2021/07/22 15:26:28;;;;;;;3.60;1.20;;;;;;;35.16;19.28;100225.11;1757353;80;21152;-67
2021/07/22 15:29:02;;;;;;;4.42;1.25;;;;;;;35.18;18.60;100226.98;1757038;81;21074;-70
2021/07/22 15:31:30;;;;;;;3.67;1.10;;;;;;;34.95;19.32;100223.14;1752552;81;21038;-69
2021/07/22 15:33:56;;;;;;;4.33;1.10;;;;;;;34.87;19.45;100231.44;1749358;81;21081;-71
2021/07/22 15:36:23;;;;;;;2.70;0.93;;;;;;;34.76;18.67;100221.70;1736207;81;21034;-68
2021/07/22 15:38:49;;;;;;;4.80;1.12;;;;;;;34.47;19.19;100225.78;1753583;81;21540;-70
2021/07/22 15:41:16;;;;;;;2.00;0.85;;;;;;;34.19;19.77;100227.59;1715038;82;21491;-71
2021/07/22 15:43:45;;;;;;;2.37;0.80;;;;;;;34.09;20.69;100224.13;1757638;81;21087;-69
2021/07/22 15:46:11;;;;;;;5.80;1.00;;;;;;;34.40;20.82;100223.38;1753176;81;21036;-68
2021/07/22 15:48:37;;;;;;;2.50;0.70;;;;;;;34.76;19.75;100222.52;1736803;81;21100;-68
2021/07/22 15:51:04;;;;;;;4.55;0.88;;;;;;;34.77;19.22;100221.98;1757117;81;21039;-74
2021/07/22 15:53:31;;;;;;;3.95;1.15;;;;;;;34.60;19.45;100227.30;1752047;80;21069;-70
2021/07/22 15:56:00;;;;;;;2.45;0.98;;;;;;;34.34;19.50;100228.05;1737041;81;21089;-66
2021/07/22 15:58:30;;;;;;;2.95;0.72;;;;;;;34.13;19.67;100230.11;1732787;81;21138;-67
2021/07/22 16:00:58;;;;;;;3.60;0.90;;;;;;;33.86;19.82;100227.28;1760399;81;21509;-67
2021/07/22 16:03:24;;;;;;;2.87;0.93;;;;;;;33.48;20.41;100235.64;1730783;81;21046;-76
2021/07/22 16:05:51;;;;;;;2.67;0.80;;;;;;;33.06;20.65;100232.20;1761020;81;21090;-76
2021/07/22 16:08:18;;;;;;;2.67;0.90;;;;;;;32.82;21.33;100227.91;1760319;81;21012;-67
2021/07/22 16:10:45;;;;;;;4.47;0.90;;;;;;;32.77;21.41;100225.20;1748394;80;21556;-65
2021/07/22 16:13:11;;;;;;;2.20;0.72;;;;;;;32.92;21.22;100236.06;1727176;81;21133;-70
2021/07/22 16:15:40;;;;;;;4.50;1.10;;;;;;;33.04;20.77;100228.14;1747491;80;21051;-67
2021/07/22 16:18:07;;;;;;;3.98;0.95;;;;;;;32.96;21.33;100228.14;1750654;80;21514;-67
2021/07/22 16:20:34;;;;;;;4.90;1.05;;;;;;;32.82;21.73;100225.71;1753979;80;21066;-71
2021/07/22 16:23:03;;;;;;;1.80;0.70;;;;;;;32.75;21.93;100233.64;1751751;79;21470;-69
2021/07/22 16:25:30;;;;;;;3.25;0.80;;;;;;;32.70;21.48;100232.81;1757089;80;21130;-67
2021/07/22 16:27:57;;;;;;;3.70;0.80;;;;;;;32.48;22.09;100238.52;1744844;80;21075;-74
2021/07/22 16:30:24;;;;;;;4.22;0.80;;;;;;;32.02;21.84;100240.63;1677403;80;21103;-65
2021/07/22 16:32:51;;;;;;;2.95;0.80;;;;;;;31.34;22.90;100244.20;1693227;80;21528;-61
2021/07/22 16:35:19;;;;;;;2.47;0.80;;;;;;;30.65;23.83;100245.91;1739449;79;21601;-60
2021/07/22 16:37:45;;;;;;;3.15;0.88;;;;;;;30.08;24.17;100255.96;1763080;80;22198;-70
2021/07/22 16:40:13;;;;;;;2.80;0.95;;;;;;;29.56;24.77;100260.76;1736267;80;21098;-71
2021/07/22 16:42:39;;;;;;;3.25;1.10;;;;;;;29.13;25.70;100254.19;1750021;80;21122;-70
2021/07/22 16:45:06;;;;;;;2.65;0.95;;;;;;;28.77;26.15;100256.38;1756739;80;21055;-69
2021/07/22 16:47:33;;;;;;;4.87;1.00;;;;;;;28.43;26.36;100256.33;1754096;80;21113;-69
2021/07/22 16:50:00;;;;;;;3.65;0.95;;;;;;;28.11;27.07;100251.95;1752713;80;21057;-69
2021/07/22 16:52:29;;;;;;;2.40;0.80;;;;;;;27.83;27.49;100257.63;1760124;79;21063;-70
2021/07/22 16:55:00;;;;;;;3.83;0.88;;;;;;;27.61;28.42;100253.41;1758025;80;21047;-69
2021/07/22 16:57:27;;;;;;;7.30;0.90;;;;;;;27.41;28.78;100257.84;1702378;83;21091;-70
2021/07/22 16:59:53;;;;;;;2.65;1.20;;;;;;;27.21;28.47;100255.49;1705138;84;21099;-67
2021/07/22 17:02:19;;;;;;;2.85;0.80;;;;;;;27.05;29.17;100264.60;1687821;83;21071;-68
2021/07/22 17:04:46;;;;;;;2.92;0.88;;;;;;;26.93;28.79;100262.95;1755713;79;21023;-68
2021/07/22 17:07:12;;;;;;;2.95;0.80;;;;;;;26.79;29.18;100264.52;1763900;79;21083;-69
2021/07/22 17:09:40;;;;;;;3.27;0.98;;;;;;;26.66;30.18;100260.69;1745952;80;21055;-71
2021/07/22 17:12:09;;;;;;;3.45;1.10;;;;;;;26.53;30.30;100264.40;1748984;80;21028;-66
2021/07/22 17:14:39;;;;;;;3.52;1.02;;;;;;;26.41;30.52;100272.97;1756552;80;21526;-69
2021/07/22 17:17:06;;;;;;;3.22;0.70;;;;;;;26.24;30.48;100275.50;1723440;80;21764;-67
2021/07/22 17:19:32;;;;;;;2.98;1.02;;;;;;;26.10;31.16;100278.38;1756487;80;21123;-70
2021/07/22 17:21:59;;;;;;;3.27;1.25;;;;;;;26.02;31.80;100282.73;1769431;81;21007;-69
2021/07/22 17:24:25;;;;;;;4.95;1.30;;;;;;;25.93;31.79;100281.39;1753949;80;21494;-65
2021/07/22 17:26:53;;;;;;;2.80;1.00;;;;;;;25.82;32.17;100278.09;1751514;79;21481;-71
2021/07/22 17:29:19;;;;;;;3.37;1.00;;;;;;;25.74;32.08;100279.24;1755362;80;21104;-69
2021/07/22 17:31:46;;;;;;;6.80;1.37;;;;;;;25.67;32.02;100284.70;1751752;80;20984;-69
2021/07/22 17:34:13;;;;;;;3.20;1.00;;;;;;;25.60;32.04;100285.28;1748587;79;21137;-65
2021/07/22 17:36:41;;;;;;;3.35;0.88;;;;;;;25.51;32.18;100285.30;1764422;80;21034;-71
2021/07/22 17:39:08;;;;;;;3.08;0.98;;;;;;;25.42;32.65;100290.16;1753773;80;21148;-70